sensor_id;sensor_type;location;lat;lon;timestamp;temperature;humidity
68011;DHT22;54794;48.348;7.878;2022-11-20T00:01:23;11.40;70.00
68011;DHT22;54794;48.348;7.878;2022-11-20T00:03:54;11.30;70.00
68011;DHT22;54794;48.348;7.878;2022-11-20T00:06:22;11.30;70.10
68011;DHT22;54794;48.348;7.878;2022-11-20T00:08:51;11.30;70.20
68011;DHT22;54794;48.348;7.878;2022-11-20T00:11:23;11.30;70.20
68011;DHT22;54794;48.348;7.878;2022-11-20T00:13:53;11.30;70.20
68011;DHT22;54794;48.348;7.878;2022-11-20T00:16:25;11.30;70.70
68011;DHT22;54794;48.348;7.878;2022-11-20T00:18:53;11.30;70.20
68011;DHT22;54794;48.348;7.878;2022-11-20T00:21:25;11.30;70.30
68011;DHT22;54794;48.348;7.878;2022-11-20T00:23:55;11.30;70.40
68011;DHT22;54794;48.348;7.878;2022-11-20T00:26:24;11.20;70.30
68011;DHT22;54794;48.348;7.878;2022-11-20T00:28:57;11.30;70.30
68011;DHT22;54794;48.348;7.878;2022-11-20T00:31:25;11.30;70.80
68011;DHT22;54794;48.348;7.878;2022-11-20T00:33:53;11.30;70.20
68011;DHT22;54794;48.348;7.878;2022-11-20T00:36:26;11.30;70.10
68011;DHT22;54794;48.348;7.878;2022-11-20T00:38:55;11.20;70.00
68011;DHT22;54794;48.348;7.878;2022-11-20T00:41:25;11.20;70.00
68011;DHT22;54794;48.348;7.878;2022-11-20T00:43:54;11.20;70.00
68011;DHT22;54794;48.348;7.878;2022-11-20T00:46:24;11.20;70.00
68011;DHT22;54794;48.348;7.878;2022-11-20T00:48:52;11.20;70.20
68011;DHT22;54794;48.348;7.878;2022-11-20T00:51:22;11.20;70.20
68011;DHT22;54794;48.348;7.878;2022-11-20T00:53:51;11.20;70.20
68011;DHT22;54794;48.348;7.878;2022-11-20T00:56:19;11.20;70.20
68011;DHT22;54794;48.348;7.878;2022-11-20T00:58:48;11.20;70.20
68011;DHT22;54794;48.348;7.878;2022-11-20T01:01:18;11.20;70.20
68011;DHT22;54794;48.348;7.878;2022-11-20T01:03:54;11.20;70.20
68011;DHT22;54794;48.348;7.878;2022-11-20T01:06:28;11.20;70.20
68011;DHT22;54794;48.348;7.878;2022-11-20T01:08:58;11.20;70.20
68011;DHT22;54794;48.348;7.878;2022-11-20T01:11:29;11.10;70.10
68011;DHT22;54794;48.348;7.878;2022-11-20T01:13:59;11.20;70.20
68011;DHT22;54794;48.348;7.878;2022-11-20T01:16:32;11.10;70.10
68011;DHT22;54794;48.348;7.878;2022-11-20T01:19:04;11.10;70.10
68011;DHT22;54794;48.348;7.878;2022-11-20T01:21:36;11.10;70.30
68011;DHT22;54794;48.348;7.878;2022-11-20T01:24:06;11.10;70.20
68011;DHT22;54794;48.348;7.878;2022-11-20T01:26:36;11.10;70.70
68011;DHT22;54794;48.348;7.878;2022-11-20T01:29:04;11.10;70.20
68011;DHT22;54794;48.348;7.878;2022-11-20T01:31:35;11.10;70.20
68011;DHT22;54794;48.348;7.878;2022-11-20T01:34:09;11.10;70.20
68011;DHT22;54794;48.348;7.878;2022-11-20T01:36:39;11.10;70.10
68011;DHT22;54794;48.348;7.878;2022-11-20T01:39:12;11.10;70.20
68011;DHT22;54794;48.348;7.878;2022-11-20T01:41:41;11.10;70.30
68011;DHT22;54794;48.348;7.878;2022-11-20T01:44:54;11.10;70.30
68011;DHT22;54794;48.348;7.878;2022-11-20T01:47:35;11.10;70.40
68011;DHT22;54794;48.348;7.878;2022-11-20T01:50:14;11.10;70.30
68011;DHT22;54794;48.348;7.878;2022-11-20T01:52:57;11.10;70.30
68011;DHT22;54794;48.348;7.878;2022-11-20T01:55:37;11.10;70.30
68011;DHT22;54794;48.348;7.878;2022-11-20T01:58:08;11.10;70.40
68011;DHT22;54794;48.348;7.878;2022-11-20T02:00:35;11.10;70.30
68011;DHT22;54794;48.348;7.878;2022-11-20T02:03:18;11.10;70.20
68011;DHT22;54794;48.348;7.878;2022-11-20T02:08:28;11.10;70.20
68011;DHT22;54794;48.348;7.878;2022-11-20T02:10:56;11.10;70.10
68011;DHT22;54794;48.348;7.878;2022-11-20T02:13:23;11.10;70.20
68011;DHT22;54794;48.348;7.878;2022-11-20T02:18:48;11.10;70.20
68011;DHT22;54794;48.348;7.878;2022-11-20T02:21:37;11.10;70.20
68011;DHT22;54794;48.348;7.878;2022-11-20T02:24:11;11.00;70.20
68011;DHT22;54794;48.348;7.878;2022-11-20T02:26:51;11.00;70.10
68011;DHT22;54794;48.348;7.878;2022-11-20T02:29:48;11.00;70.10
68011;DHT22;54794;48.348;7.878;2022-11-20T02:34:53;11.00;69.80
68011;DHT22;54794;48.348;7.878;2022-11-20T02:37:21;11.00;69.90
68011;DHT22;54794;48.348;7.878;2022-11-20T02:39:51;10.90;69.90
68011;DHT22;54794;48.348;7.878;2022-11-20T02:42:19;10.90;69.90
68011;DHT22;54794;48.348;7.878;2022-11-20T02:44:45;10.90;69.90
68011;DHT22;54794;48.348;7.878;2022-11-20T02:47:12;10.90;70.00
68011;DHT22;54794;48.348;7.878;2022-11-20T02:49:39;10.90;70.60
68011;DHT22;54794;48.348;7.878;2022-11-20T02:52:06;10.90;70.00
68011;DHT22;54794;48.348;7.878;2022-11-20T02:54:33;10.90;70.10
68011;DHT22;54794;48.348;7.878;2022-11-20T02:57:00;10.90;70.10
68011;DHT22;54794;48.348;7.878;2022-11-20T02:59:26;10.80;70.00
68011;DHT22;54794;48.348;7.878;2022-11-20T03:01:53;10.80;70.00
68011;DHT22;54794;48.348;7.878;2022-11-20T03:04:20;10.80;70.00
68011;DHT22;54794;48.348;7.878;2022-11-20T03:06:47;10.80;70.00
68011;DHT22;54794;48.348;7.878;2022-11-20T03:09:14;10.80;70.10
68011;DHT22;54794;48.348;7.878;2022-11-20T03:11:41;10.80;70.10
68011;DHT22;54794;48.348;7.878;2022-11-20T03:14:07;10.80;70.10
68011;DHT22;54794;48.348;7.878;2022-11-20T03:16:35;10.80;70.10
68011;DHT22;54794;48.348;7.878;2022-11-20T03:19:02;10.80;70.20
68011;DHT22;54794;48.348;7.878;2022-11-20T03:21:29;10.80;70.10
68011;DHT22;54794;48.348;7.878;2022-11-20T03:23:56;10.80;70.10
68011;DHT22;54794;48.348;7.878;2022-11-20T03:26:24;10.80;70.00
68011;DHT22;54794;48.348;7.878;2022-11-20T03:28:55;10.80;70.00
68011;DHT22;54794;48.348;7.878;2022-11-20T03:31:29;10.80;70.10
68011;DHT22;54794;48.348;7.878;2022-11-20T03:33:58;10.80;70.00
68011;DHT22;54794;48.348;7.878;2022-11-20T03:36:26;10.70;70.00
68011;DHT22;54794;48.348;7.878;2022-11-20T03:38:55;10.70;70.10
68011;DHT22;54794;48.348;7.878;2022-11-20T03:41:28;10.80;70.20
68011;DHT22;54794;48.348;7.878;2022-11-20T03:44:01;10.70;70.20
68011;DHT22;54794;48.348;7.878;2022-11-20T03:46:29;10.70;70.20
68011;DHT22;54794;48.348;7.878;2022-11-20T03:48:56;10.80;70.20
68011;DHT22;54794;48.348;7.878;2022-11-20T03:51:27;10.70;70.30
68011;DHT22;54794;48.348;7.878;2022-11-20T03:53:58;10.70;70.20
68011;DHT22;54794;48.348;7.878;2022-11-20T03:56:30;10.70;70.20
68011;DHT22;54794;48.348;7.878;2022-11-20T03:58:58;10.70;70.30
68011;DHT22;54794;48.348;7.878;2022-11-20T04:01:28;10.70;70.30
68011;DHT22;54794;48.348;7.878;2022-11-20T04:03:57;10.70;70.40
68011;DHT22;54794;48.348;7.878;2022-11-20T04:06:35;10.70;70.40
68011;DHT22;54794;48.348;7.878;2022-11-20T04:09:04;10.70;70.50
68011;DHT22;54794;48.348;7.878;2022-11-20T04:11:33;10.80;70.50
68011;DHT22;54794;48.348;7.878;2022-11-20T04:14:04;10.70;70.50
68011;DHT22;54794;48.348;7.878;2022-11-20T04:16:34;10.80;71.00
68011;DHT22;54794;48.348;7.878;2022-11-20T04:19:05;10.80;70.50
68011;DHT22;54794;48.348;7.878;2022-11-20T04:21:33;10.80;70.50
68011;DHT22;54794;48.348;7.878;2022-11-20T04:24:00;10.80;70.40
68011;DHT22;54794;48.348;7.878;2022-11-20T04:26:29;10.80;70.40
68011;DHT22;54794;48.348;7.878;2022-11-20T04:28:57;10.80;70.50
68011;DHT22;54794;48.348;7.878;2022-11-20T04:31:30;10.80;70.50
68011;DHT22;54794;48.348;7.878;2022-11-20T04:34:05;10.80;70.50
68011;DHT22;54794;48.348;7.878;2022-11-20T04:36:33;10.80;70.50
68011;DHT22;54794;48.348;7.878;2022-11-20T04:39:04;10.80;70.50
68011;DHT22;54794;48.348;7.878;2022-11-20T04:41:35;10.80;70.60
68011;DHT22;54794;48.348;7.878;2022-11-20T04:44:04;10.80;70.60
68011;DHT22;54794;48.348;7.878;2022-11-20T04:46:35;10.80;70.60
68011;DHT22;54794;48.348;7.878;2022-11-20T04:49:07;10.80;70.60
68011;DHT22;54794;48.348;7.878;2022-11-20T04:51:35;10.80;70.70
68011;DHT22;54794;48.348;7.878;2022-11-20T04:54:02;10.80;70.60
68011;DHT22;54794;48.348;7.878;2022-11-20T04:56:29;10.80;70.70
68011;DHT22;54794;48.348;7.878;2022-11-20T04:59:00;10.80;70.60
68011;DHT22;54794;48.348;7.878;2022-11-20T05:01:28;10.80;70.70
68011;DHT22;54794;48.348;7.878;2022-11-20T05:03:55;10.80;70.70
68011;DHT22;54794;48.348;7.878;2022-11-20T05:06:22;10.70;70.60
68011;DHT22;54794;48.348;7.878;2022-11-20T05:08:49;10.80;70.70
68011;DHT22;54794;48.348;7.878;2022-11-20T05:11:19;10.80;70.70
68011;DHT22;54794;48.348;7.878;2022-11-20T05:13:48;10.80;70.80
68011;DHT22;54794;48.348;7.878;2022-11-20T05:16:26;10.80;70.80
68011;DHT22;54794;48.348;7.878;2022-11-20T05:18:54;10.80;70.70
68011;DHT22;54794;48.348;7.878;2022-11-20T05:21:22;10.80;70.70
68011;DHT22;54794;48.348;7.878;2022-11-20T05:23:49;10.80;70.70
68011;DHT22;54794;48.348;7.878;2022-11-20T05:26:22;10.80;70.70
68011;DHT22;54794;48.348;7.878;2022-11-20T05:28:50;10.80;70.70
68011;DHT22;54794;48.348;7.878;2022-11-20T05:31:20;10.80;70.70
68011;DHT22;54794;48.348;7.878;2022-11-20T05:33:55;10.80;70.60
68011;DHT22;54794;48.348;7.878;2022-11-20T05:36:23;10.80;70.60
68011;DHT22;54794;48.348;7.878;2022-11-20T05:38:50;10.80;70.70
68011;DHT22;54794;48.348;7.878;2022-11-20T05:41:23;10.80;70.70
68011;DHT22;54794;48.348;7.878;2022-11-20T05:43:51;10.80;70.80
68011;DHT22;54794;48.348;7.878;2022-11-20T05:46:20;10.80;70.80
68011;DHT22;54794;48.348;7.878;2022-11-20T05:48:54;10.80;70.60
68011;DHT22;54794;48.348;7.878;2022-11-20T05:51:22;10.80;70.60
68011;DHT22;54794;48.348;7.878;2022-11-20T05:53:49;10.80;70.70
68011;DHT22;54794;48.348;7.878;2022-11-20T05:56:18;10.80;70.70
68011;DHT22;54794;48.348;7.878;2022-11-20T05:58:47;10.80;70.70
68011;DHT22;54794;48.348;7.878;2022-11-20T06:01:22;10.80;70.70
68011;DHT22;54794;48.348;7.878;2022-11-20T06:03:52;10.80;70.80
68011;DHT22;54794;48.348;7.878;2022-11-20T06:06:19;10.80;70.80
68011;DHT22;54794;48.348;7.878;2022-11-20T06:08:47;10.80;70.80
68011;DHT22;54794;48.348;7.878;2022-11-20T06:11:15;10.80;71.10
68011;DHT22;54794;48.348;7.878;2022-11-20T06:13:43;10.80;70.90
68011;DHT22;54794;48.348;7.878;2022-11-20T06:16:12;10.80;70.60
68011;DHT22;54794;48.348;7.878;2022-11-20T06:18:41;10.80;70.70
68011;DHT22;54794;48.348;7.878;2022-11-20T06:21:10;10.80;70.70
68011;DHT22;54794;48.348;7.878;2022-11-20T06:23:39;10.70;70.70
68011;DHT22;54794;48.348;7.878;2022-11-20T06:26:10;10.80;70.80
68011;DHT22;54794;48.348;7.878;2022-11-20T06:28:38;10.80;70.80
68011;DHT22;54794;48.348;7.878;2022-11-20T06:31:06;10.80;70.80
68011;DHT22;54794;48.348;7.878;2022-11-20T06:33:36;10.80;70.80
68011;DHT22;54794;48.348;7.878;2022-11-20T06:36:04;10.70;70.80
68011;DHT22;54794;48.348;7.878;2022-11-20T06:38:37;10.70;70.80
68011;DHT22;54794;48.348;7.878;2022-11-20T06:41:05;10.70;70.80
68011;DHT22;54794;48.348;7.878;2022-11-20T06:43:33;10.70;70.80
68011;DHT22;54794;48.348;7.878;2022-11-20T06:46:00;10.70;70.80
68011;DHT22;54794;48.348;7.878;2022-11-20T06:48:27;10.70;71.40
68011;DHT22;54794;48.348;7.878;2022-11-20T06:50:56;10.70;70.80
68011;DHT22;54794;48.348;7.878;2022-11-20T06:53:23;10.70;70.80
68011;DHT22;54794;48.348;7.878;2022-11-20T06:55:51;10.70;70.80
68011;DHT22;54794;48.348;7.878;2022-11-20T06:58:19;10.70;70.90
68011;DHT22;54794;48.348;7.878;2022-11-20T07:00:46;10.70;70.80
68011;DHT22;54794;48.348;7.878;2022-11-20T07:03:13;10.70;70.80
68011;DHT22;54794;48.348;7.878;2022-11-20T07:05:40;10.70;70.80
68011;DHT22;54794;48.348;7.878;2022-11-20T07:08:07;10.70;70.80
68011;DHT22;54794;48.348;7.878;2022-11-20T07:10:35;10.70;70.80
68011;DHT22;54794;48.348;7.878;2022-11-20T07:13:02;10.70;70.80
68011;DHT22;54794;48.348;7.878;2022-11-20T07:15:29;10.70;70.80
68011;DHT22;54794;48.348;7.878;2022-11-20T07:17:58;10.80;70.90
68011;DHT22;54794;48.348;7.878;2022-11-20T07:20:26;10.70;70.90
68011;DHT22;54794;48.348;7.878;2022-11-20T07:22:57;10.70;71.40
68011;DHT22;54794;48.348;7.878;2022-11-20T07:25:25;10.70;70.90
68011;DHT22;54794;48.348;7.878;2022-11-20T07:28:00;10.70;70.90
68011;DHT22;54794;48.348;7.878;2022-11-20T07:30:28;10.70;70.90
68011;DHT22;54794;48.348;7.878;2022-11-20T07:32:55;10.70;70.90
68011;DHT22;54794;48.348;7.878;2022-11-20T07:35:23;10.70;71.00
68011;DHT22;54794;48.348;7.878;2022-11-20T07:37:51;10.70;70.80
68011;DHT22;54794;48.348;7.878;2022-11-20T07:40:18;10.80;70.90
68011;DHT22;54794;48.348;7.878;2022-11-20T07:42:54;10.70;71.00
68011;DHT22;54794;48.348;7.878;2022-11-20T07:45:23;10.70;71.10
68011;DHT22;54794;48.348;7.878;2022-11-20T07:47:51;10.70;71.00
68011;DHT22;54794;48.348;7.878;2022-11-20T07:50:19;10.70;71.00
68011;DHT22;54794;48.348;7.878;2022-11-20T07:52:46;10.70;71.10
68011;DHT22;54794;48.348;7.878;2022-11-20T07:55:14;10.80;71.10
68011;DHT22;54794;48.348;7.878;2022-11-20T07:57:41;10.70;71.00
68011;DHT22;54794;48.348;7.878;2022-11-20T08:00:10;10.80;71.20
68011;DHT22;54794;48.348;7.878;2022-11-20T08:02:41;10.80;70.90
68011;DHT22;54794;48.348;7.878;2022-11-20T08:05:09;10.80;71.00
68011;DHT22;54794;48.348;7.878;2022-11-20T08:07:41;10.80;71.00
68011;DHT22;54794;48.348;7.878;2022-11-20T08:10:12;10.80;71.10
68011;DHT22;54794;48.348;7.878;2022-11-20T08:12:49;10.80;71.10
68011;DHT22;54794;48.348;7.878;2022-11-20T08:15:37;10.80;71.20
68011;DHT22;54794;48.348;7.878;2022-11-20T08:18:09;10.80;71.20
68011;DHT22;54794;48.348;7.878;2022-11-20T08:21:01;10.80;71.20
68011;DHT22;54794;48.348;7.878;2022-11-20T08:23:31;10.80;71.20
68011;DHT22;54794;48.348;7.878;2022-11-20T08:25:59;10.80;71.10
68011;DHT22;54794;48.348;7.878;2022-11-20T08:28:26;10.80;71.10
68011;DHT22;54794;48.348;7.878;2022-11-20T08:31:01;10.80;71.10
68011;DHT22;54794;48.348;7.878;2022-11-20T08:33:29;10.80;71.10
68011;DHT22;54794;48.348;7.878;2022-11-20T08:36:03;10.80;71.10
68011;DHT22;54794;48.348;7.878;2022-11-20T08:38:31;10.80;71.10
68011;DHT22;54794;48.348;7.878;2022-11-20T08:41:01;10.80;71.10
68011;DHT22;54794;48.348;7.878;2022-11-20T08:43:47;10.80;71.10
68011;DHT22;54794;48.348;7.878;2022-11-20T08:46:15;10.80;71.20
68011;DHT22;54794;48.348;7.878;2022-11-20T08:48:43;10.90;71.00
68011;DHT22;54794;48.348;7.878;2022-11-20T08:51:11;10.80;71.10
68011;DHT22;54794;48.348;7.878;2022-11-20T08:53:38;10.80;71.20
68011;DHT22;54794;48.348;7.878;2022-11-20T08:56:06;10.80;71.30
68011;DHT22;54794;48.348;7.878;2022-11-20T08:58:33;10.80;71.00
68011;DHT22;54794;48.348;7.878;2022-11-20T09:01:21;10.80;71.10
68011;DHT22;54794;48.348;7.878;2022-11-20T09:03:49;10.80;71.20
68011;DHT22;54794;48.348;7.878;2022-11-20T09:06:17;11.00;71.40
68011;DHT22;54794;48.348;7.878;2022-11-20T09:08:45;10.80;71.30
68011;DHT22;54794;48.348;7.878;2022-11-20T09:11:12;10.90;71.40
68011;DHT22;54794;48.348;7.878;2022-11-20T09:13:39;10.90;71.40
68011;DHT22;54794;48.348;7.878;2022-11-20T09:16:08;10.90;71.30
68011;DHT22;54794;48.348;7.878;2022-11-20T09:18:36;10.90;71.30
68011;DHT22;54794;48.348;7.878;2022-11-20T09:21:10;10.90;71.30
68011;DHT22;54794;48.348;7.878;2022-11-20T09:23:40;10.90;71.40
68011;DHT22;54794;48.348;7.878;2022-11-20T09:26:12;10.90;71.30
68011;DHT22;54794;48.348;7.878;2022-11-20T09:28:40;10.90;71.40
68011;DHT22;54794;48.348;7.878;2022-11-20T09:31:09;11.10;71.40
68011;DHT22;54794;48.348;7.878;2022-11-20T09:33:59;10.90;71.40
68011;DHT22;54794;48.348;7.878;2022-11-20T09:36:26;11.00;71.50
68011;DHT22;54794;48.348;7.878;2022-11-20T09:38:53;11.00;71.40
68011;DHT22;54794;48.348;7.878;2022-11-20T09:41:49;11.00;71.50
68011;DHT22;54794;48.348;7.878;2022-11-20T09:50:00;11.00;71.50
68011;DHT22;54794;48.348;7.878;2022-11-20T09:55:16;11.10;71.60
68011;DHT22;54794;48.348;7.878;2022-11-20T09:57:44;11.10;71.60
68011;DHT22;54794;48.348;7.878;2022-11-20T10:00:15;11.10;71.70
68011;DHT22;54794;48.348;7.878;2022-11-20T10:03:10;11.10;71.40
68011;DHT22;54794;48.348;7.878;2022-11-20T10:05:50;11.20;71.60
68011;DHT22;54794;48.348;7.878;2022-11-20T10:08:28;11.20;71.70
68011;DHT22;54794;48.348;7.878;2022-11-20T10:11:05;11.30;71.60
68011;DHT22;54794;48.348;7.878;2022-11-20T10:16:42;11.30;71.50
68011;DHT22;54794;48.348;7.878;2022-11-20T10:30:38;11.50;71.80
68011;DHT22;54794;48.348;7.878;2022-11-20T10:33:26;11.50;71.70
68011;DHT22;54794;48.348;7.878;2022-11-20T10:36:23;11.60;71.80
68011;DHT22;54794;48.348;7.878;2022-11-20T10:39:06;11.60;71.70
68011;DHT22;54794;48.348;7.878;2022-11-20T10:41:45;11.70;71.70
68011;DHT22;54794;48.348;7.878;2022-11-20T10:44:37;11.80;71.50
68011;DHT22;54794;48.348;7.878;2022-11-20T10:47:32;11.80;71.30
68011;DHT22;54794;48.348;7.878;2022-11-20T10:50:08;11.90;71.30
68011;DHT22;54794;48.348;7.878;2022-11-20T10:53:01;11.90;71.50
68011;DHT22;54794;48.348;7.878;2022-11-20T10:56:00;12.00;71.60
68011;DHT22;54794;48.348;7.878;2022-11-20T11:01:28;12.10;71.70
68011;DHT22;54794;48.348;7.878;2022-11-20T11:04:00;12.20;71.70
68011;DHT22;54794;48.348;7.878;2022-11-20T11:08:01;12.20;71.60
68011;DHT22;54794;48.348;7.878;2022-11-20T11:14:45;12.50;71.20
68011;DHT22;54794;48.348;7.878;2022-11-20T11:17:32;12.40;71.10
68011;DHT22;54794;48.348;7.878;2022-11-20T11:23:02;12.50;71.10
68011;DHT22;54794;48.348;7.878;2022-11-20T11:25:33;12.60;71.00
68011;DHT22;54794;48.348;7.878;2022-11-20T11:30:46;12.70;71.10
68011;DHT22;54794;48.348;7.878;2022-11-20T11:33:31;12.70;71.00
68011;DHT22;54794;48.348;7.878;2022-11-20T11:36:16;12.80;70.80
68011;DHT22;54794;48.348;7.878;2022-11-20T11:38:55;12.80;70.80
68011;DHT22;54794;48.348;7.878;2022-11-20T11:41:37;12.80;70.60
68011;DHT22;54794;48.348;7.878;2022-11-20T11:44:29;12.90;70.60
68011;DHT22;54794;48.348;7.878;2022-11-20T11:47:29;12.80;70.20
68011;DHT22;54794;48.348;7.878;2022-11-20T11:55:38;12.90;70.20
68011;DHT22;54794;48.348;7.878;2022-11-20T11:58:11;12.90;70.10
68011;DHT22;54794;48.348;7.878;2022-11-20T12:01:47;12.90;70.10
68011;DHT22;54794;48.348;7.878;2022-11-20T12:04:57;12.80;69.70
68011;DHT22;54794;48.348;7.878;2022-11-20T12:16:34;12.80;69.60
68011;DHT22;54794;48.348;7.878;2022-11-20T12:19:11;12.70;69.70
68011;DHT22;54794;48.348;7.878;2022-11-20T12:25:24;12.70;69.30
68011;DHT22;54794;48.348;7.878;2022-11-20T12:30:14;12.70;69.10
68011;DHT22;54794;48.348;7.878;2022-11-20T12:33:04;12.70;69.60
68011;DHT22;54794;48.348;7.878;2022-11-20T12:38:43;12.70;68.80
68011;DHT22;54794;48.348;7.878;2022-11-20T12:48:17;12.70;68.80
68011;DHT22;54794;48.348;7.878;2022-11-20T12:54:17;12.60;68.50
68011;DHT22;54794;48.348;7.878;2022-11-20T13:00:18;12.60;68.80
68011;DHT22;54794;48.348;7.878;2022-11-20T13:09:06;12.70;69.20
68011;DHT22;54794;48.348;7.878;2022-11-20T13:12:24;12.70;68.50
68011;DHT22;54794;48.348;7.878;2022-11-20T13:15:05;12.70;68.90
68011;DHT22;54794;48.348;7.878;2022-11-20T13:17:55;12.80;68.70
68011;DHT22;54794;48.348;7.878;2022-11-20T13:20:23;12.80;68.20
68011;DHT22;54794;48.348;7.878;2022-11-20T13:22:51;12.80;68.80
68011;DHT22;54794;48.348;7.878;2022-11-20T13:25:32;12.80;68.30
68011;DHT22;54794;48.348;7.878;2022-11-20T13:29:11;12.80;67.90
68011;DHT22;54794;48.348;7.878;2022-11-20T13:30:55;12.80;68.10
68011;DHT22;54794;48.348;7.878;2022-11-20T13:33:28;12.80;68.10
68011;DHT22;54794;48.348;7.878;2022-11-20T13:35:59;12.80;68.30
68011;DHT22;54794;48.348;7.878;2022-11-20T13:38:50;12.90;68.30
68011;DHT22;54794;48.348;7.878;2022-11-20T13:41:29;12.90;67.50
68011;DHT22;54794;48.348;7.878;2022-11-20T13:44:10;12.90;67.70
68011;DHT22;54794;48.348;7.878;2022-11-20T13:46:46;12.90;67.50
68011;DHT22;54794;48.348;7.878;2022-11-20T13:49:33;13.00;67.60
68011;DHT22;54794;48.348;7.878;2022-11-20T14:01:53;12.90;66.80
68011;DHT22;54794;48.348;7.878;2022-11-20T14:04:33;12.90;67.40
68011;DHT22;54794;48.348;7.878;2022-11-20T14:07:05;12.90;67.30
68011;DHT22;54794;48.348;7.878;2022-11-20T14:09:34;12.90;67.10
68011;DHT22;54794;48.348;7.878;2022-11-20T14:12:03;12.90;67.00
68011;DHT22;54794;48.348;7.878;2022-11-20T14:14:48;12.90;67.20
68011;DHT22;54794;48.348;7.878;2022-11-20T14:17:21;12.90;66.10
68011;DHT22;54794;48.348;7.878;2022-11-20T14:19:52;12.90;66.80
68011;DHT22;54794;48.348;7.878;2022-11-20T14:22:23;12.80;66.80
68011;DHT22;54794;48.348;7.878;2022-11-20T14:25:18;12.80;67.00
68011;DHT22;54794;48.348;7.878;2022-11-20T14:27:58;12.80;66.50
68011;DHT22;54794;48.348;7.878;2022-11-20T14:30:30;12.80;66.80
68011;DHT22;54794;48.348;7.878;2022-11-20T14:33:05;12.80;66.50
68011;DHT22;54794;48.348;7.878;2022-11-20T14:35:40;12.70;66.00
68011;DHT22;54794;48.348;7.878;2022-11-20T14:38:17;12.70;66.60
68011;DHT22;54794;48.348;7.878;2022-11-20T14:40:46;12.70;66.40
68011;DHT22;54794;48.348;7.878;2022-11-20T14:43:24;12.70;66.80
68011;DHT22;54794;48.348;7.878;2022-11-20T14:48:32;12.60;66.70
68011;DHT22;54794;48.348;7.878;2022-11-20T14:51:04;12.60;66.80
68011;DHT22;54794;48.348;7.878;2022-11-20T14:53:31;12.60;67.10
68011;DHT22;54794;48.348;7.878;2022-11-20T15:27:57;10.20;70.60
68011;DHT22;54794;48.348;7.878;2022-11-20T15:30:47;10.00;71.10
68011;DHT22;54794;48.348;7.878;2022-11-20T15:33:22;10.10;70.90
68011;DHT22;54794;48.348;7.878;2022-11-20T15:36:18;10.40;70.80
68011;DHT22;54794;48.348;7.878;2022-11-20T15:38:53;10.60;70.30
68011;DHT22;54794;48.348;7.878;2022-11-20T15:41:20;10.70;70.10
68011;DHT22;54794;48.348;7.878;2022-11-20T15:43:52;10.80;69.80
68011;DHT22;54794;48.348;7.878;2022-11-20T15:46:29;11.00;69.60
68011;DHT22;54794;48.348;7.878;2022-11-20T15:49:13;11.10;69.40
68011;DHT22;54794;48.348;7.878;2022-11-20T15:51:55;11.20;69.20
68011;DHT22;54794;48.348;7.878;2022-11-20T15:54:25;11.30;69.10
68011;DHT22;54794;48.348;7.878;2022-11-20T15:57:00;11.30;68.90
68011;DHT22;54794;48.348;7.878;2022-11-20T15:59:33;11.40;68.90
68011;DHT22;54794;48.348;7.878;2022-11-20T16:02:08;11.40;68.90
68011;DHT22;54794;48.348;7.878;2022-11-20T16:04:52;11.50;68.80
68011;DHT22;54794;48.348;7.878;2022-11-20T16:07:26;11.50;68.70
68011;DHT22;54794;48.348;7.878;2022-11-20T16:09:55;11.60;68.60
68011;DHT22;54794;48.348;7.878;2022-11-20T16:12:29;11.60;68.50
68011;DHT22;54794;48.348;7.878;2022-11-20T16:15:21;11.60;68.40
68011;DHT22;54794;48.348;7.878;2022-11-20T16:18:11;11.60;68.40
68011;DHT22;54794;48.348;7.878;2022-11-20T16:20:50;11.70;68.20
68011;DHT22;54794;48.348;7.878;2022-11-20T16:23:19;11.40;68.10
68011;DHT22;54794;48.348;7.878;2022-11-20T16:25:57;11.70;68.20
68011;DHT22;54794;48.348;7.878;2022-11-20T16:28:24;11.70;67.90
68011;DHT22;54794;48.348;7.878;2022-11-20T16:30:51;11.70;68.00
68011;DHT22;54794;48.348;7.878;2022-11-20T16:33:18;11.70;67.80
68011;DHT22;54794;48.348;7.878;2022-11-20T16:35:45;11.70;67.90
68011;DHT22;54794;48.348;7.878;2022-11-20T16:38:12;11.70;68.00
68011;DHT22;54794;48.348;7.878;2022-11-20T16:40:39;11.60;68.00
68011;DHT22;54794;48.348;7.878;2022-11-20T16:43:09;11.60;68.00
68011;DHT22;54794;48.348;7.878;2022-11-20T16:45:43;11.60;67.90
68011;DHT22;54794;48.348;7.878;2022-11-20T16:48:15;11.60;67.90
68011;DHT22;54794;48.348;7.878;2022-11-20T16:50:52;11.60;67.90
68011;DHT22;54794;48.348;7.878;2022-11-20T16:53:20;11.60;67.70
68011;DHT22;54794;48.348;7.878;2022-11-20T16:55:48;11.60;68.00
68011;DHT22;54794;48.348;7.878;2022-11-20T16:58:15;11.60;68.00
68011;DHT22;54794;48.348;7.878;2022-11-20T17:00:42;11.60;68.00
68011;DHT22;54794;48.348;7.878;2022-11-20T17:03:17;11.60;68.00
68011;DHT22;54794;48.348;7.878;2022-11-20T17:05:44;11.60;68.00
68011;DHT22;54794;48.348;7.878;2022-11-20T17:08:11;11.60;68.10
68011;DHT22;54794;48.348;7.878;2022-11-20T17:10:38;11.60;68.00
68011;DHT22;54794;48.348;7.878;2022-11-20T17:13:05;11.60;68.00
68011;DHT22;54794;48.348;7.878;2022-11-20T17:15:31;11.60;68.00
68011;DHT22;54794;48.348;7.878;2022-11-20T17:17:58;11.60;68.00
68011;DHT22;54794;48.348;7.878;2022-11-20T17:20:25;11.60;68.00
68011;DHT22;54794;48.348;7.878;2022-11-20T17:22:52;11.60;67.90
68011;DHT22;54794;48.348;7.878;2022-11-20T17:25:19;11.60;67.80
68011;DHT22;54794;48.348;7.878;2022-11-20T17:27:46;11.60;67.80
68011;DHT22;54794;48.348;7.878;2022-11-20T17:30:13;11.60;67.90
68011;DHT22;54794;48.348;7.878;2022-11-20T17:32:40;11.60;67.90
68011;DHT22;54794;48.348;7.878;2022-11-20T17:35:11;11.60;67.80
68011;DHT22;54794;48.348;7.878;2022-11-20T17:37:37;11.60;67.90
68011;DHT22;54794;48.348;7.878;2022-11-20T17:40:05;11.60;68.00
68011;DHT22;54794;48.348;7.878;2022-11-20T17:42:32;11.60;68.00
68011;DHT22;54794;48.348;7.878;2022-11-20T17:45:03;11.60;68.00
68011;DHT22;54794;48.348;7.878;2022-11-20T17:47:30;11.60;67.90
68011;DHT22;54794;48.348;7.878;2022-11-20T17:49:57;11.50;67.90
68011;DHT22;54794;48.348;7.878;2022-11-20T17:52:24;11.60;67.90
68011;DHT22;54794;48.348;7.878;2022-11-20T17:54:51;11.50;67.80
68011;DHT22;54794;48.348;7.878;2022-11-20T17:57:24;11.50;67.80
68011;DHT22;54794;48.348;7.878;2022-11-20T18:00:10;11.50;68.30
68011;DHT22;54794;48.348;7.878;2022-11-20T18:02:38;11.50;67.70
68011;DHT22;54794;48.348;7.878;2022-11-20T18:05:05;11.50;67.70
68011;DHT22;54794;48.348;7.878;2022-11-20T18:07:33;11.40;67.70
68011;DHT22;54794;48.348;7.878;2022-11-20T18:10:07;11.40;66.90
68011;DHT22;54794;48.348;7.878;2022-11-20T18:12:35;11.30;67.20
68011;DHT22;54794;48.348;7.878;2022-11-20T18:15:02;11.30;67.30
68011;DHT22;54794;48.348;7.878;2022-11-20T18:17:29;11.20;67.50